createdAt,value
2023-02-23T00:00:53.223Z,24.78
2023-02-23T00:01:53.242Z,24.77
2023-02-23T00:02:53.338Z,24.76
2023-02-23T00:03:53.311Z,24.75
2023-02-23T00:04:53.393Z,24.75
2023-02-23T00:05:53.430Z,24.76
2023-02-23T00:06:53.736Z,24.76
2023-02-23T00:07:53.512Z,24.76
2023-02-23T00:08:53.579Z,24.76
2023-02-23T00:09:53.622Z,24.76
2023-02-23T00:10:53.744Z,24.76
2023-02-23T00:11:53.707Z,24.76
2023-02-23T00:12:53.777Z,24.77
2023-02-23T00:13:53.832Z,24.77
2023-02-23T00:14:53.871Z,24.77
2023-02-23T00:15:53.918Z,24.77
2023-02-23T00:16:54.044Z,24.77
2023-02-23T00:17:54.030Z,24.77
2023-02-23T00:18:54.118Z,24.77
2023-02-23T00:19:54.130Z,24.77
2023-02-23T00:20:54.217Z,24.77
2023-02-23T00:21:54.279Z,24.77
2023-02-23T00:22:54.293Z,24.77
2023-02-23T00:23:54.374Z,24.76
2023-02-23T00:24:54.402Z,24.75
2023-02-23T00:25:54.459Z,24.74
2023-02-23T00:26:54.494Z,24.75
2023-02-23T00:27:54.536Z,24.74
2023-02-23T00:28:54.598Z,24.74
2023-02-23T00:29:54.618Z,24.73
2023-02-23T00:30:54.730Z,24.73
2023-02-23T00:31:54.760Z,24.72
2023-02-23T00:32:54.746Z,24.72
2023-02-23T00:33:54.750Z,24.73
2023-02-23T00:34:54.776Z,24.72
2023-02-23T00:42:55.182Z,24.72
2023-02-23T00:43:55.209Z,24.72
2023-02-23T01:09:56.116Z,24.68
2023-02-23T01:10:56.189Z,24.68
2023-02-23T01:11:56.286Z,24.69
2023-02-23T01:12:56.266Z,24.69
2023-02-23T01:13:56.314Z,24.69
2023-02-23T01:14:56.353Z,24.69
2023-02-23T01:15:56.445Z,24.68
2023-02-23T01:16:56.411Z,24.69
2023-02-23T01:17:56.486Z,24.69
2023-02-23T01:18:56.514Z,24.70
2023-02-23T01:19:56.570Z,24.70
2023-02-23T01:20:56.643Z,24.70
2023-02-23T01:21:56.616Z,24.70
2023-02-23T01:22:56.677Z,24.71
2023-02-23T01:23:56.728Z,24.71
2023-02-23T01:24:57.481Z,24.71
2023-02-23T01:25:56.804Z,24.71
2023-02-23T01:26:56.846Z,24.72
2023-02-23T01:27:56.898Z,24.72
2023-02-23T01:28:56.981Z,24.72
2023-02-23T01:29:57.001Z,24.72
2023-02-23T01:30:57.147Z,24.73
2023-02-23T01:31:57.139Z,24.72
2023-02-23T01:32:57.088Z,24.72
2023-02-23T01:33:57.179Z,24.73
2023-02-23T01:34:57.181Z,24.73
2023-02-23T01:35:57.242Z,24.73
2023-02-23T01:36:57.246Z,24.73
2023-02-23T01:37:57.306Z,24.73
2023-02-23T01:38:57.376Z,24.73
2023-02-23T01:39:57.448Z,24.73
2023-02-23T01:40:57.479Z,24.73
2023-02-23T01:41:57.528Z,24.74
2023-02-23T01:42:57.581Z,24.73
2023-02-23T01:43:57.651Z,24.73
2023-02-23T01:44:57.703Z,24.73
2023-02-23T01:45:57.754Z,24.73
2023-02-23T01:46:57.774Z,24.73
2023-02-23T01:47:57.822Z,24.74
2023-02-23T01:48:57.891Z,24.74
2023-02-23T01:49:57.945Z,24.74
2023-02-23T01:50:58.587Z,24.74
2023-02-23T01:51:58.000Z,24.74
2023-02-23T01:52:58.219Z,24.74
2023-02-23T01:53:58.125Z,24.73
2023-02-23T01:54:58.185Z,24.74
2023-02-23T01:55:58.274Z,24.74
2023-02-23T01:56:58.699Z,24.74
2023-02-23T01:57:58.332Z,24.73
2023-02-23T01:58:58.386Z,24.74
2023-02-23T01:59:58.445Z,24.74
2023-02-23T02:00:58.478Z,24.74
2023-02-23T02:01:58.510Z,24.74
2023-02-23T02:02:58.560Z,24.74
2023-02-23T02:03:58.633Z,24.74
2023-02-23T02:04:58.662Z,24.74
2023-02-23T02:05:58.719Z,24.74
2023-02-23T02:06:58.783Z,24.74
2023-02-23T02:07:58.785Z,24.73
2023-02-23T02:08:58.837Z,24.71
2023-02-23T02:59:00.518Z,24.62
2023-02-23T03:00:00.576Z,24.61
2023-02-23T03:01:00.657Z,24.61
2023-02-23T03:02:00.643Z,24.61
2023-02-23T03:03:00.619Z,24.59
2023-02-23T03:04:00.668Z,24.58
2023-02-23T03:05:00.735Z,24.58
2023-02-23T03:06:00.766Z,24.58
2023-02-23T03:07:00.776Z,24.57
2023-02-23T03:08:00.829Z,24.57
2023-02-23T03:09:00.839Z,24.57
2023-02-23T03:10:00.915Z,24.57
2023-02-23T03:11:00.966Z,24.56
2023-02-23T03:12:00.969Z,24.55
2023-02-23T03:13:01.018Z,24.55
2023-02-23T03:14:01.089Z,24.54
2023-02-23T03:15:01.115Z,24.54
2023-02-23T03:16:01.148Z,24.55
2023-02-23T03:17:01.195Z,24.55
2023-02-23T03:18:01.213Z,24.56
2023-02-23T03:19:01.221Z,24.55
2023-02-23T03:20:01.290Z,24.55
2023-02-23T03:21:01.347Z,24.55
2023-02-23T03:22:01.365Z,24.54
2023-02-23T03:23:01.400Z,24.54
2023-02-23T03:24:03.078Z,24.54
2023-02-23T03:25:01.460Z,24.53
2023-02-23T03:26:01.522Z,24.53
2023-02-23T03:27:01.589Z,24.51
2023-02-23T03:28:01.639Z,24.51
2023-02-23T03:29:01.654Z,24.51
2023-02-23T03:30:01.704Z,24.49
2023-02-23T03:31:01.737Z,24.49
2023-02-23T03:32:01.848Z,24.50
2023-02-23T03:33:01.824Z,24.50
2023-02-23T03:34:01.855Z,24.50
2023-02-23T03:35:01.883Z,24.49
2023-02-23T03:36:01.961Z,24.48
2023-02-23T03:37:02.024Z,24.48
2023-02-23T03:38:02.047Z,24.48
2023-02-23T03:39:02.135Z,24.48
2023-02-23T03:40:02.216Z,24.47
2023-02-23T03:41:02.193Z,24.47
2023-02-23T03:42:02.252Z,24.47
2023-02-23T03:43:02.317Z,24.47
2023-02-23T03:44:02.326Z,24.48
2023-02-23T03:45:02.387Z,24.48
2023-02-23T03:46:02.481Z,24.49
2023-02-23T03:47:02.458Z,24.48
2023-02-23T03:48:02.514Z,24.49
2023-02-23T03:49:02.562Z,24.49
2023-02-23T03:50:02.615Z,24.50
2023-02-23T03:51:02.648Z,24.51
2023-02-23T03:52:02.690Z,24.51
2023-02-23T03:53:02.730Z,24.52
2023-02-23T03:54:02.787Z,24.53
2023-02-23T03:55:02.842Z,24.53
2023-02-23T03:56:02.846Z,24.53
2023-02-23T03:57:02.887Z,24.53
2023-02-23T03:58:02.927Z,24.54
2023-02-23T03:59:02.978Z,24.55
2023-02-23T04:00:03.035Z,24.55
2023-02-23T04:01:03.087Z,24.54
2023-02-23T04:02:03.076Z,24.53
2023-02-23T04:03:03.171Z,24.53
2023-02-23T04:04:03.237Z,24.53
2023-02-23T04:05:03.242Z,24.53
2023-02-23T04:06:03.281Z,24.53
2023-02-23T04:07:03.272Z,24.52
2023-02-23T04:08:03.318Z,24.53
2023-02-23T04:09:04.027Z,24.53
2023-02-23T04:10:03.385Z,24.53
2023-02-23T04:11:03.426Z,24.53
2023-02-23T04:12:03.436Z,24.54
2023-02-23T04:13:03.487Z,24.55
2023-02-23T04:14:03.525Z,24.55
2023-02-23T04:15:03.552Z,24.55
2023-02-23T04:16:03.596Z,24.56
2023-02-23T04:17:03.786Z,24.56
2023-02-23T04:18:03.719Z,24.56
2023-02-23T04:19:03.742Z,24.56
2023-02-23T04:20:03.809Z,24.57
2023-02-23T04:21:03.905Z,24.57
2023-02-23T04:22:03.901Z,24.57
2023-02-23T04:23:03.876Z,24.58
2023-02-23T04:24:03.930Z,24.57
2023-02-23T04:25:03.946Z,24.57
2023-02-23T04:26:03.947Z,24.58
2023-02-23T04:27:04.025Z,24.57
2023-02-23T04:28:04.027Z,24.57
2023-02-23T04:29:04.061Z,24.58
2023-02-23T04:30:04.075Z,24.57
2023-02-23T04:31:04.148Z,24.57
2023-02-23T04:32:04.223Z,24.57
2023-02-23T04:33:04.211Z,24.57
2023-02-23T04:34:04.239Z,24.58
2023-02-23T04:35:04.246Z,24.58
2023-02-23T04:36:04.290Z,24.59
2023-02-23T04:37:04.310Z,24.58
2023-02-23T04:38:04.332Z,24.59
2023-02-23T04:39:04.377Z,24.59
2023-02-23T04:40:04.425Z,24.59
2023-02-23T04:41:04.429Z,24.59
2023-02-23T04:42:04.468Z,24.59
2023-02-23T04:43:04.515Z,24.59
2023-02-23T04:44:04.563Z,24.60
2023-02-23T04:45:04.583Z,24.60
2023-02-23T04:46:04.691Z,24.60
2023-02-23T04:47:04.614Z,24.60
2023-02-23T04:48:04.679Z,24.60
2023-02-23T04:49:04.698Z,24.61
2023-02-23T04:50:04.711Z,24.61
2023-02-23T04:51:04.803Z,24.61
2023-02-23T04:52:04.883Z,24.62
2023-02-23T04:53:04.843Z,24.62
2023-02-23T04:54:04.893Z,24.62
2023-02-23T04:55:04.920Z,24.62
2023-02-23T04:56:04.979Z,24.63
2023-02-23T04:57:04.981Z,24.63
2023-02-23T04:58:05.026Z,24.64
2023-02-23T04:59:05.063Z,24.65
2023-02-23T05:00:05.075Z,24.65
2023-02-23T05:01:05.114Z,24.66
2023-02-23T05:02:05.173Z,24.66
2023-02-23T05:03:05.196Z,24.66
2023-02-23T05:04:05.236Z,24.66
2023-02-23T05:05:05.315Z,24.67
2023-02-23T05:06:05.310Z,24.67
2023-02-23T05:07:05.411Z,24.66
2023-02-23T05:08:05.401Z,24.67
2023-02-23T05:09:05.450Z,24.67
2023-02-23T05:10:05.472Z,24.66
2023-02-23T05:11:05.549Z,24.67
2023-02-23T05:12:05.558Z,24.67
2023-02-23T05:13:05.634Z,24.66
2023-02-23T05:14:05.680Z,24.67
2023-02-23T05:15:05.699Z,24.67
2023-02-23T05:16:05.813Z,24.67
2023-02-23T05:17:08.302Z,24.67
2023-02-23T05:18:05.799Z,24.67
2023-02-23T05:19:05.823Z,24.67
2023-02-23T05:20:05.843Z,24.67
2023-02-23T05:21:05.859Z,24.67
2023-02-23T05:22:06.626Z,24.67
2023-02-23T05:23:05.916Z,24.68
2023-02-23T05:24:05.917Z,24.67
2023-02-23T05:25:05.949Z,24.67
2023-02-23T05:26:05.966Z,24.66
2023-02-23T05:27:05.980Z,24.66
2023-02-23T05:28:06.012Z,24.67
2023-02-23T05:29:06.066Z,24.66
2023-02-23T05:30:06.053Z,24.66
2023-02-23T05:31:06.198Z,24.66
2023-02-23T05:32:06.214Z,24.67
2023-02-23T05:33:06.125Z,24.67
2023-02-23T05:34:06.126Z,24.67
2023-02-23T05:35:06.144Z,24.68
2023-02-23T05:36:06.127Z,24.69
2023-02-23T05:37:06.155Z,24.70
2023-02-23T05:38:06.185Z,24.70
2023-02-23T05:39:06.204Z,24.71
2023-02-23T05:40:06.229Z,24.72
2023-02-23T05:41:06.245Z,24.72
2023-02-23T05:42:06.246Z,24.72
2023-02-23T05:43:06.271Z,24.74
2023-02-23T05:44:06.279Z,24.73
2023-02-23T05:45:06.267Z,24.74
2023-02-23T05:46:06.326Z,24.74
2023-02-23T05:47:06.274Z,24.75
2023-02-23T05:48:06.302Z,24.75
2023-02-23T05:49:06.327Z,24.76
2023-02-23T05:50:06.345Z,24.76
2023-02-23T05:51:06.373Z,24.76
2023-02-23T05:52:06.388Z,24.75
2023-02-23T05:53:06.390Z,24.75
2023-02-23T05:55:06.434Z,24.75
2023-02-23T05:56:06.452Z,24.75
2023-02-23T05:57:06.497Z,24.75
2023-02-23T05:58:06.489Z,24.75
2023-02-23T05:59:06.497Z,24.76
2023-02-23T06:00:06.516Z,24.76
2023-02-23T06:01:13.620Z,24.76
2023-02-23T06:02:06.518Z,24.76
2023-02-23T06:03:06.536Z,24.77
2023-02-23T06:04:06.662Z,24.78
2023-02-23T06:05:06.565Z,24.78
2023-02-23T06:06:06.638Z,24.79
2023-02-23T06:07:06.574Z,24.80
2023-02-23T06:08:06.619Z,24.80
2023-02-23T06:09:06.636Z,24.80
2023-02-23T06:10:06.653Z,24.80
2023-02-23T06:11:06.649Z,24.80
2023-02-23T06:12:06.672Z,24.80
2023-02-23T06:13:06.708Z,24.80
2023-02-23T06:14:06.707Z,24.79
2023-02-23T06:15:06.719Z,24.79
2023-02-23T06:16:06.881Z,24.78
2023-02-23T06:17:06.791Z,24.78
2023-02-23T06:18:06.743Z,24.78
2023-02-23T06:19:06.777Z,24.78
2023-02-23T06:20:06.804Z,24.79
2023-02-23T06:21:06.820Z,24.79
2023-02-23T06:22:06.801Z,24.79
2023-02-23T06:23:06.785Z,24.79
2023-02-23T06:24:06.838Z,24.80
2023-02-23T06:25:06.840Z,24.80
2023-02-23T06:26:06.848Z,24.80
2023-02-23T06:27:06.855Z,24.81
2023-02-23T06:28:06.857Z,24.82
2023-02-23T06:29:06.880Z,24.82
2023-02-23T06:30:06.882Z,24.83
2023-02-23T06:31:07.113Z,24.84
2023-02-23T06:32:06.996Z,24.85
2023-02-23T06:33:06.937Z,24.86
2023-02-23T06:34:06.916Z,24.84
2023-02-23T06:35:06.915Z,24.84
2023-02-23T06:36:06.960Z,24.83
2023-02-23T06:37:09.200Z,24.83
2023-02-23T06:38:06.941Z,24.80
2023-02-23T06:39:06.981Z,24.80
2023-02-23T06:40:06.978Z,24.81
2023-02-23T06:41:07.241Z,24.79
2023-02-23T06:42:07.061Z,24.78
2023-02-23T06:43:07.075Z,24.79
2023-02-23T06:44:07.089Z,24.79
2023-02-23T06:45:07.150Z,24.78
2023-02-23T06:47:07.638Z,24.79
2023-02-23T06:48:07.248Z,24.81
2023-02-23T06:49:07.345Z,24.82
2023-02-23T06:50:07.352Z,24.84
2023-02-23T06:51:07.438Z,24.88
2023-02-23T06:53:07.607Z,24.94
2023-02-23T06:54:07.674Z,24.97
2023-02-23T06:55:09.199Z,25.03
2023-02-23T06:56:07.682Z,25.07
2023-02-23T06:57:07.699Z,25.11
2023-02-23T06:58:08.747Z,25.15
2023-02-23T06:59:08.656Z,25.20
2023-02-23T07:00:07.717Z,25.23
2023-02-23T07:01:07.687Z,25.28
2023-02-23T07:02:07.738Z,25.34
2023-02-23T07:03:07.618Z,25.38
2023-02-23T07:04:07.745Z,25.40
2023-02-23T07:05:07.721Z,25.45
2023-02-23T07:06:07.652Z,25.48
2023-02-23T07:07:07.649Z,25.53
2023-02-23T07:08:07.688Z,25.57
2023-02-23T07:09:07.651Z,25.60
2023-02-23T07:10:07.629Z,25.64
2023-02-23T07:11:07.876Z,25.64
2023-02-23T07:12:08.174Z,25.62
2023-02-23T07:13:08.031Z,25.67
2023-02-23T07:14:12.769Z,25.69
2023-02-23T07:15:08.639Z,25.72
2023-02-23T07:17:07.705Z,25.78
2023-02-23T07:18:08.053Z,25.81
2023-02-23T07:19:07.840Z,25.84
2023-02-23T07:20:07.753Z,25.82
2023-02-23T07:21:07.663Z,25.84
2023-02-23T07:22:08.178Z,25.86
2023-02-23T07:23:07.615Z,25.89
2023-02-23T07:24:07.658Z,25.91
2023-02-23T07:25:07.611Z,25.92
2023-02-23T07:26:07.671Z,25.93
2023-02-23T07:27:07.630Z,25.95
2023-02-23T07:28:07.619Z,25.98
2023-02-23T07:29:07.673Z,26.00
2023-02-23T07:30:07.596Z,26.01
2023-02-23T07:31:07.654Z,26.03
2023-02-23T07:34:07.569Z,26.09
2023-02-23T07:35:07.580Z,26.10
2023-02-23T07:36:07.594Z,26.09
2023-02-23T07:37:07.646Z,26.04
2023-02-23T07:38:07.645Z,26.01
2023-02-23T07:39:07.655Z,26.01
2023-02-23T07:40:07.752Z,25.99
2023-02-23T07:41:07.724Z,25.95
2023-02-23T07:42:08.191Z,25.91
2023-02-23T07:43:07.874Z,25.87
2023-02-23T07:44:07.847Z,25.85
2023-02-23T07:45:07.888Z,25.84
2023-02-23T07:46:07.883Z,25.85
2023-02-23T07:47:07.860Z,25.86
2023-02-23T07:48:07.854Z,25.89
2023-02-23T07:49:07.889Z,25.88
2023-02-23T07:50:08.000Z,25.89
2023-02-23T07:51:09.932Z,25.93
2023-02-23T07:52:08.049Z,25.96
2023-02-23T07:53:08.166Z,26.00
2023-02-23T07:54:08.071Z,26.04
2023-02-23T07:55:08.127Z,26.08
2023-02-23T07:56:08.150Z,26.12
2023-02-23T07:57:08.188Z,26.16
2023-02-23T07:59:08.233Z,26.21
2023-02-23T08:00:08.259Z,26.23
2023-02-23T08:01:08.369Z,26.25
2023-02-23T08:02:08.329Z,26.27
2023-02-23T08:03:08.332Z,26.30
2023-02-23T08:04:08.375Z,26.31
2023-02-23T08:05:08.382Z,26.34
2023-02-23T08:06:08.365Z,26.35
2023-02-23T08:07:08.384Z,26.38
2023-02-23T08:08:08.394Z,26.40
2023-02-23T08:09:08.466Z,26.41
2023-02-23T08:10:08.430Z,26.43
2023-02-23T08:11:08.499Z,26.43
2023-02-23T08:12:08.478Z,26.45
2023-02-23T08:14:08.490Z,26.47
2023-02-23T08:15:08.570Z,26.46
2023-02-23T08:16:08.591Z,26.49
2023-02-23T08:17:08.610Z,26.52
2023-02-23T08:18:08.688Z,26.53
2023-02-23T08:19:08.671Z,26.54
2023-02-23T09:21:10.505Z,25.71
2023-02-23T09:22:10.557Z,25.70
2023-02-23T09:23:10.742Z,25.71
2023-02-23T09:24:10.647Z,25.72
2023-02-23T09:25:10.691Z,25.72
2023-02-23T09:26:10.735Z,25.73
2023-02-23T09:27:10.777Z,25.74
2023-02-23T09:28:10.862Z,25.77
2023-02-23T09:29:10.866Z,25.79
2023-02-23T09:30:10.905Z,25.80
2023-02-23T09:31:11.934Z,25.81
2023-02-23T09:32:11.171Z,25.79
2023-02-23T09:33:11.213Z,25.77
2023-02-23T09:34:11.085Z,25.80
2023-02-23T09:35:11.124Z,25.83
2023-02-23T09:36:11.128Z,25.85
2023-02-23T09:37:11.197Z,25.88
2023-02-23T09:38:11.283Z,25.90
2023-02-23T09:39:11.683Z,25.93
2023-02-23T09:40:11.236Z,25.94
2023-02-23T09:41:11.255Z,25.93
2023-02-23T09:42:11.322Z,25.92
2023-02-23T09:43:11.312Z,25.92
2023-02-23T09:44:11.344Z,25.89
2023-02-23T09:45:11.349Z,25.90
2023-02-23T09:46:11.421Z,25.90
2023-02-23T09:47:12.240Z,25.83
2023-02-23T09:48:11.458Z,25.85
2023-02-23T09:49:11.496Z,25.88
2023-02-23T09:50:11.450Z,25.84
2023-02-23T09:51:11.548Z,25.83
2023-02-23T09:52:11.681Z,25.85
2023-02-23T09:53:11.538Z,25.87
2023-02-23T09:54:11.685Z,25.88
2023-02-23T09:55:11.648Z,25.84
2023-02-23T09:56:11.677Z,25.85
2023-02-23T09:57:11.710Z,25.86
2023-02-23T09:58:11.646Z,25.87
2023-02-23T09:59:11.733Z,25.87
2023-02-23T10:00:11.745Z,25.89
2023-02-23T10:01:11.831Z,25.91
2023-02-23T10:02:11.874Z,25.95
2023-02-23T10:03:11.854Z,25.99
2023-02-23T10:04:12.242Z,26.04
2023-02-23T10:05:12.024Z,26.09
2023-02-23T10:06:11.926Z,26.13
2023-02-23T10:07:11.924Z,26.12
2023-02-23T10:08:12.006Z,26.13
2023-02-23T10:09:12.273Z,26.12
2023-02-23T10:10:12.040Z,26.12
2023-02-23T10:11:12.041Z,26.11
2023-02-23T10:12:12.037Z,26.11
2023-02-23T10:13:12.088Z,26.11
2023-02-23T10:14:12.215Z,26.11
2023-02-23T10:15:12.103Z,26.11
2023-02-23T10:16:12.145Z,26.11
2023-02-23T10:17:12.189Z,26.11
2023-02-23T10:18:12.187Z,26.11
2023-02-23T10:19:12.211Z,26.11
2023-02-23T10:20:12.282Z,26.13
2023-02-23T10:21:12.244Z,26.15
2023-02-23T10:22:12.256Z,26.16
2023-02-23T10:25:02.210Z,26.20
2023-02-23T14:00:10.530Z,25.44
2023-02-23T14:01:10.661Z,25.44
2023-02-23T14:02:10.767Z,25.44
2023-02-23T14:03:10.724Z,25.44
2023-02-23T14:04:10.747Z,25.43
2023-02-23T14:05:10.839Z,25.43
2023-02-23T14:06:10.827Z,25.43
2023-02-23T14:07:10.877Z,25.42
2023-02-23T14:08:10.885Z,25.42
2023-02-23T14:09:10.982Z,25.42
2023-02-23T14:10:11.016Z,25.42
2023-02-23T14:11:11.084Z,25.42
2023-02-23T14:12:11.133Z,25.42
2023-02-23T14:13:11.210Z,25.42
2023-02-23T14:14:11.227Z,25.42
2023-02-23T14:15:11.305Z,25.41
2023-02-23T14:16:11.401Z,25.41
2023-02-23T14:17:11.383Z,25.41
2023-02-23T14:18:11.446Z,25.40
2023-02-23T14:19:11.480Z,25.39
2023-02-23T14:20:17.835Z,25.39
2023-02-23T14:21:12.574Z,25.38
2023-02-23T14:22:11.516Z,25.38
2023-02-23T14:23:11.562Z,25.38
2023-02-23T14:24:11.524Z,25.39
2023-02-23T14:25:11.597Z,25.41
2023-02-23T14:26:11.512Z,25.41
2023-02-23T14:27:11.540Z,25.40
2023-02-23T14:28:11.542Z,25.36
2023-02-23T14:29:11.523Z,25.34
2023-02-23T14:30:11.581Z,25.30
2023-02-23T14:31:11.605Z,25.28
2023-02-23T14:32:11.651Z,25.25
2023-02-23T14:33:21.517Z,25.23
2023-02-23T14:34:12.614Z,25.21
2023-02-23T14:35:11.600Z,25.19
2023-02-23T14:36:11.617Z,25.19
2023-02-23T14:37:11.665Z,25.18
2023-02-23T14:38:11.608Z,25.17
2023-02-23T14:39:11.610Z,25.16
2023-02-23T14:40:11.616Z,25.15
2023-02-23T14:41:11.656Z,25.12
2023-02-23T14:42:11.663Z,25.12
2023-02-23T14:43:11.636Z,25.10
2023-02-23T14:44:27.209Z,25.09
2023-02-23T14:45:12.642Z,25.07
2023-02-23T14:46:11.671Z,25.07
2023-02-23T14:47:11.693Z,25.06
2023-02-23T14:48:11.695Z,25.04
2023-02-23T14:49:11.694Z,25.03
2023-02-23T14:50:11.702Z,25.01
2023-02-23T14:51:16.600Z,25.00
2023-02-23T14:52:12.684Z,24.99
2023-02-23T14:53:11.714Z,24.99
2023-02-23T14:54:11.727Z,24.99
2023-02-23T14:55:11.737Z,24.98
2023-02-23T14:56:11.779Z,24.97
2023-02-23T14:57:11.749Z,24.96
2023-02-23T14:58:11.757Z,24.95
2023-02-23T14:59:11.770Z,24.95
2023-02-23T15:00:11.801Z,24.94
2023-02-23T15:01:11.769Z,24.94
2023-02-23T15:02:11.762Z,24.93
2023-02-23T15:03:11.791Z,24.92
2023-02-23T15:04:11.765Z,24.91
2023-02-23T15:05:11.780Z,24.91
2023-02-23T15:06:12.225Z,24.91
2023-02-23T15:07:11.795Z,24.91
2023-02-23T15:08:11.882Z,24.90
2023-02-23T15:09:11.903Z,24.88
2023-02-23T15:10:11.936Z,24.89
2023-02-23T15:11:11.926Z,24.88
2023-02-23T15:12:12.015Z,24.89
2023-02-23T15:13:12.036Z,24.88
2023-02-23T15:14:25.596Z,24.87
2023-02-23T15:21:12.164Z,24.84
2023-02-23T16:18:33.884Z,24.59
2023-02-23T16:19:33.881Z,24.61
2023-02-23T16:20:33.879Z,24.61
2023-02-23T16:21:33.864Z,24.62
2023-02-23T16:45:34.081Z,24.54
2023-02-23T16:56:34.171Z,24.52
2023-02-23T16:57:34.167Z,24.52
2023-02-23T16:58:34.168Z,24.52
2023-02-23T16:59:34.179Z,24.51
2023-02-23T17:31:34.542Z,24.45
2023-02-23T17:32:34.495Z,24.44
2023-02-23T17:33:34.428Z,24.44
2023-02-23T17:34:34.449Z,24.44
2023-02-23T17:35:35.138Z,24.43
2023-02-23T17:36:34.481Z,24.43
2023-02-23T17:37:34.501Z,24.43
2023-02-23T17:38:34.556Z,24.43
2023-02-23T17:39:34.504Z,24.42
2023-02-23T17:40:34.532Z,24.42
2023-02-23T17:41:34.538Z,24.42
2023-02-23T17:42:34.547Z,24.42
2023-02-23T17:43:34.547Z,24.41
2023-02-23T17:44:34.561Z,24.41
2023-02-23T17:45:34.558Z,24.40
2023-02-23T17:46:34.656Z,24.40
2023-02-23T17:47:34.669Z,24.40
2023-02-23T17:48:34.645Z,24.40
2023-02-23T17:49:34.631Z,24.39
2023-02-23T17:50:34.625Z,24.39
2023-02-23T17:51:34.689Z,24.39
2023-02-23T17:52:34.700Z,24.39
2023-02-23T17:53:34.708Z,24.38
2023-02-23T17:54:34.691Z,24.38
2023-02-23T17:55:34.696Z,24.38
2023-02-23T17:56:34.726Z,24.38
2023-02-23T17:57:34.773Z,24.37
2023-02-23T17:58:34.795Z,24.37
2023-02-23T17:59:34.848Z,24.37
2023-02-23T18:00:34.907Z,24.37
2023-02-23T18:01:35.036Z,24.36
2023-02-23T18:02:34.927Z,24.35
2023-02-23T18:03:35.045Z,24.35
2023-02-23T18:04:35.063Z,24.35
2023-02-23T18:05:35.089Z,24.34
2023-02-23T18:06:35.158Z,24.33
2023-02-23T18:07:35.285Z,24.33
2023-02-23T18:08:35.217Z,24.32
2023-02-23T18:09:35.332Z,24.32
2023-02-23T18:10:35.327Z,24.31
2023-02-23T18:11:35.387Z,24.31
2023-02-23T18:12:35.512Z,24.31
2023-02-23T18:13:35.469Z,24.29
2023-02-23T18:14:35.521Z,24.29
2023-02-23T18:15:35.673Z,24.29
2023-02-23T18:16:35.613Z,24.28
2023-02-23T18:17:35.691Z,24.28
2023-02-23T18:18:35.707Z,24.28
2023-02-23T18:19:35.754Z,24.28
2023-02-23T18:20:35.828Z,24.28
2023-02-23T18:21:35.850Z,24.28
2023-02-23T18:22:35.913Z,24.28
2023-02-23T18:23:35.923Z,24.27
2023-02-23T18:24:35.985Z,24.27
2023-02-23T18:25:36.056Z,24.27
2023-02-23T18:26:36.184Z,24.26
2023-02-23T18:27:36.165Z,24.26
2023-02-23T18:28:36.234Z,24.26
2023-02-23T18:29:36.281Z,24.26
2023-02-23T18:30:36.373Z,24.26
2023-02-23T18:31:36.506Z,24.25
2023-02-23T18:32:36.529Z,24.25
2023-02-23T18:33:36.512Z,24.26
2023-02-23T18:34:36.571Z,24.25
2023-02-23T18:35:36.622Z,24.25
2023-02-23T18:36:36.690Z,24.24
2023-02-23T18:37:36.762Z,24.24
2023-02-23T18:38:36.773Z,24.24
2023-02-23T18:39:36.802Z,24.24
2023-02-23T18:40:36.841Z,24.24
2023-02-23T18:41:36.874Z,24.23
2023-02-23T18:42:36.927Z,24.23
2023-02-23T18:43:36.995Z,24.22
2023-02-23T18:44:37.022Z,24.22
2023-02-23T18:45:37.669Z,24.22
2023-02-23T18:46:37.283Z,24.20
2023-02-23T18:47:37.240Z,24.20
2023-02-23T18:48:37.290Z,24.20
2023-02-23T18:49:37.320Z,24.20
2023-02-23T18:50:37.393Z,24.19
2023-02-23T18:51:37.437Z,24.19
2023-02-23T18:52:37.482Z,24.18
2023-02-23T18:53:37.601Z,24.19
2023-02-23T18:54:37.627Z,24.18
2023-02-23T18:55:37.709Z,24.18
2023-02-23T18:56:37.744Z,24.18
2023-02-23T18:57:37.810Z,24.17
2023-02-23T18:58:37.802Z,24.17
2023-02-23T18:59:37.863Z,24.17
2023-02-23T19:00:38.014Z,24.16
2023-02-23T19:01:37.990Z,24.16
2023-02-23T19:02:38.043Z,24.15
2023-02-23T19:03:38.096Z,24.15
2023-02-23T19:04:38.171Z,24.15
2023-02-23T19:05:38.219Z,24.15
2023-02-23T19:06:38.381Z,24.14
2023-02-23T19:07:38.345Z,24.15
2023-02-23T19:08:38.391Z,24.14
2023-02-23T19:09:38.468Z,24.13
2023-02-23T19:10:38.556Z,24.13
2023-02-23T19:11:38.564Z,24.12
2023-02-23T19:12:38.680Z,24.12
2023-02-23T19:13:38.666Z,24.12
2023-02-23T19:14:49.260Z,24.12
2023-02-23T19:15:39.769Z,24.11
2023-02-23T19:16:38.814Z,24.11
2023-02-23T19:17:38.759Z,24.11
2023-02-23T19:18:38.771Z,24.10
2023-02-23T19:19:38.788Z,24.10
2023-02-23T19:20:38.777Z,24.09
2023-02-23T19:21:38.786Z,24.09
2023-02-23T19:22:38.803Z,24.09
2023-02-23T19:23:38.805Z,24.08
2023-02-23T19:24:38.791Z,24.08
2023-02-23T19:25:38.836Z,24.07
2023-02-23T19:26:38.864Z,24.06
2023-02-23T19:27:38.937Z,24.06
2023-02-23T19:28:38.997Z,24.05
2023-02-23T19:29:39.048Z,24.05
2023-02-23T19:30:39.074Z,24.05
2023-02-23T19:31:39.442Z,24.05
2023-02-23T19:32:39.422Z,24.05
2023-02-23T19:33:39.347Z,24.04
2023-02-23T19:34:39.305Z,24.04
2023-02-23T19:35:39.361Z,24.04
2023-02-23T19:36:39.469Z,24.04
2023-02-23T19:37:39.479Z,24.02
2023-02-23T19:38:39.528Z,24.03
2023-02-23T19:39:39.583Z,24.02
2023-02-23T19:40:39.648Z,24.02
2023-02-23T19:41:39.736Z,24.02
2023-02-23T19:42:39.759Z,24.02
2023-02-23T19:43:39.804Z,24.01
2023-02-23T19:44:39.873Z,24.01
2023-02-23T19:45:39.938Z,24.00
2023-02-23T19:46:40.102Z,24.01
2023-02-23T19:47:40.010Z,24.00
2023-02-23T19:48:40.060Z,23.99
2023-02-23T19:49:40.100Z,24.00
2023-02-23T19:50:40.219Z,24.00
2023-02-23T19:51:40.232Z,24.00
2023-02-23T19:52:40.300Z,24.00
2023-02-23T19:53:40.355Z,24.00
2023-02-23T19:54:40.409Z,23.99
2023-02-23T19:55:40.457Z,23.98
2023-02-23T19:56:40.557Z,23.99
2023-02-23T19:57:40.631Z,23.98
2023-02-23T19:58:40.699Z,23.98
2023-02-23T19:59:40.723Z,23.99
2023-02-23T20:00:40.780Z,23.98
2023-02-23T20:01:40.831Z,23.98
2023-02-23T20:02:40.918Z,23.97
2023-02-23T20:03:40.926Z,23.97
2023-02-23T20:04:41.002Z,23.96
2023-02-23T20:05:41.048Z,23.96
2023-02-23T20:06:41.110Z,23.95
2023-02-23T20:07:41.128Z,23.95
2023-02-23T20:08:41.217Z,23.96
2023-02-23T20:09:41.286Z,23.95
2023-02-23T20:10:41.337Z,23.95
2023-02-23T20:11:41.405Z,23.95
2023-02-23T20:12:41.453Z,23.94
2023-02-23T20:13:41.496Z,23.94
2023-02-23T20:14:41.596Z,23.93
2023-02-23T20:15:41.622Z,23.93
2023-02-23T20:16:41.768Z,23.92
2023-02-23T20:17:41.725Z,23.91
2023-02-23T20:18:41.785Z,23.92
2023-02-23T20:19:41.854Z,23.92
2023-02-23T20:20:41.912Z,23.92
2023-02-23T20:21:42.131Z,23.91
2023-02-23T20:22:41.999Z,23.91
2023-02-23T20:23:42.098Z,23.90
2023-02-23T20:24:42.164Z,23.90
2023-02-23T20:25:42.252Z,23.89
2023-02-23T20:26:42.313Z,23.88
2023-02-23T20:27:42.335Z,23.88
2023-02-23T20:28:42.428Z,23.87
2023-02-23T20:29:42.423Z,23.87
2023-02-23T20:30:42.577Z,23.87
2023-02-23T20:31:42.670Z,23.87
2023-02-23T20:32:42.809Z,23.87
2023-02-23T20:33:42.696Z,23.86
2023-02-23T20:34:42.803Z,23.85
2023-02-23T20:35:42.804Z,23.86
2023-02-23T20:36:42.890Z,23.86
2023-02-23T20:37:42.951Z,23.85
2023-02-23T20:38:42.995Z,23.85
2023-02-23T20:39:43.042Z,23.85
2023-02-23T20:40:43.075Z,23.85
2023-02-23T20:41:43.190Z,23.85
2023-02-23T20:42:43.235Z,23.86
2023-02-23T20:43:43.309Z,23.86
2023-02-23T20:44:43.361Z,23.86
2023-02-23T20:45:43.439Z,23.85
2023-02-23T20:46:43.590Z,23.86
2023-02-23T20:47:43.547Z,23.85
2023-02-23T20:48:43.582Z,23.85
2023-02-23T20:49:43.654Z,23.84
2023-02-23T20:50:43.729Z,23.84
2023-02-23T20:51:43.806Z,23.83
2023-02-23T20:52:43.845Z,23.82
2023-02-23T20:53:43.891Z,23.82
2023-02-23T20:54:43.989Z,23.82
2023-02-23T20:55:44.048Z,23.82
2023-02-23T20:56:44.119Z,23.83
2023-02-23T20:57:44.208Z,23.82
2023-02-23T20:58:44.197Z,23.82
2023-02-23T20:59:44.291Z,23.81
2023-02-23T21:00:44.347Z,23.81
2023-02-23T21:01:44.466Z,23.81
2023-02-23T21:02:44.476Z,23.80
2023-02-23T21:03:44.585Z,23.79
2023-02-23T21:04:44.594Z,23.78
2023-02-23T21:05:44.644Z,23.78